Terminal Aerodrome Forecast
Issued by NWS Omaha/Valley, NE

Home | Current Version | Previous Version | Graphics & Text | Print | Product List | Glossary On
Versions: 1 2 3 4 5 6 7 8 9 10 11 12 13 14
000
FTUS43 KOAX 160529
TAFOFK
TAF
KOFK 160529Z 1606/1706 25004KT P6SM BKN250
     FM161300 30004KT P6SM SCT100 OVC250
     FM161700 36010KT P6SM OVC250
     FM170300 03004KT P6SM BKN030=

USA.gov is the U.S. government's official web portal to all federal, state and local government web resources and services.